sensor_id;sensor_type;location;lat;lon;timestamp;pressure;altitude;pressure_sealevel;temperature
32039;BMP280;18549;42.286;22.688;2023-06-22T00:00:11;96015.63;;;26.06
32039;BMP280;18549;42.286;22.688;2023-06-22T00:02:39;96019.94;;;26.05
32039;BMP280;18549;42.286;22.688;2023-06-22T00:05:07;96009.72;;;25.99
32039;BMP280;18549;42.286;22.688;2023-06-22T00:07:35;96004.94;;;25.89
32039;BMP280;18549;42.286;22.688;2023-06-22T00:10:05;96008.91;;;25.78
32039;BMP280;18549;42.286;22.688;2023-06-22T00:12:32;96008.13;;;25.77
32039;BMP280;18549;42.286;22.688;2023-06-22T00:15:01;95994.97;;;25.74
32039;BMP280;18549;42.286;22.688;2023-06-22T00:17:29;95999.53;;;25.78
32039;BMP280;18549;42.286;22.688;2023-06-22T00:19:56;96003.28;;;25.82
32039;BMP280;18549;42.286;22.688;2023-06-22T00:22:24;96011.31;;;25.85
32039;BMP280;18549;42.286;22.688;2023-06-22T00:24:54;96005.63;;;25.84
32039;BMP280;18549;42.286;22.688;2023-06-22T00:27:21;96008.16;;;25.84
32039;BMP280;18549;42.286;22.688;2023-06-22T00:29:48;95999.34;;;25.80
32039;BMP280;18549;42.286;22.688;2023-06-22T00:32:18;96001.44;;;25.76
32039;BMP280;18549;42.286;22.688;2023-06-22T00:34:45;96004.19;;;25.75
32039;BMP280;18549;42.286;22.688;2023-06-22T00:37:12;96008.28;;;25.76
32039;BMP280;18549;42.286;22.688;2023-06-22T00:39:39;95996.56;;;25.75
32039;BMP280;18549;42.286;22.688;2023-06-22T00:42:08;96003.56;;;25.73
32039;BMP280;18549;42.286;22.688;2023-06-22T00:44:35;96003.38;;;25.74
32039;BMP280;18549;42.286;22.688;2023-06-22T00:47:04;96000.84;;;25.74
32039;BMP280;18549;42.286;22.688;2023-06-22T00:49:35;95993.59;;;25.71
32039;BMP280;18549;42.286;22.688;2023-06-22T00:52:03;95996.66;;;25.67
32039;BMP280;18549;42.286;22.688;2023-06-22T00:54:36;96004.88;;;25.69
32039;BMP280;18549;42.286;22.688;2023-06-22T00:57:04;96009.00;;;25.70
32039;BMP280;18549;42.286;22.688;2023-06-22T00:59:32;95997.66;;;25.66
32039;BMP280;18549;42.286;22.688;2023-06-22T01:02:00;96004.28;;;25.67
32039;BMP280;18549;42.286;22.688;2023-06-22T01:04:37;96009.34;;;25.67
32039;BMP280;18549;42.286;22.688;2023-06-22T01:07:10;96018.28;;;25.63
32039;BMP280;18549;42.286;22.688;2023-06-22T01:09:47;96013.56;;;25.60
32039;BMP280;18549;42.286;22.688;2023-06-22T01:12:17;96023.47;;;25.55
32039;BMP280;18549;42.286;22.688;2023-06-22T01:14:50;96023.34;;;25.49
32039;BMP280;18549;42.286;22.688;2023-06-22T01:17:19;96017.94;;;25.37
32039;BMP280;18549;42.286;22.688;2023-06-22T01:19:54;96012.09;;;25.37
32039;BMP280;18549;42.286;22.688;2023-06-22T01:22:23;96007.37;;;25.34
32039;BMP280;18549;42.286;22.688;2023-06-22T01:25:08;96012.78;;;25.31
32039;BMP280;18549;42.286;22.688;2023-06-22T01:27:42;96017.84;;;25.31
32039;BMP280;18549;42.286;22.688;2023-06-22T01:30:16;96017.69;;;25.32
32039;BMP280;18549;42.286;22.688;2023-06-22T01:32:46;96023.75;;;25.31
32039;BMP280;18549;42.286;22.688;2023-06-22T01:35:14;96035.81;;;25.29
32039;BMP280;18549;42.286;22.688;2023-06-22T01:37:42;96027.94;;;25.24
32039;BMP280;18549;42.286;22.688;2023-06-22T01:40:09;96034.50;;;25.19
32039;BMP280;18549;42.286;22.688;2023-06-22T01:42:38;96026.53;;;25.08
32039;BMP280;18549;42.286;22.688;2023-06-22T01:45:09;96034.03;;;25.01
32039;BMP280;18549;42.286;22.688;2023-06-22T01:47:38;96037.53;;;25.00
32039;BMP280;18549;42.286;22.688;2023-06-22T01:50:08;96033.44;;;24.99
32039;BMP280;18549;42.286;22.688;2023-06-22T01:52:35;96039.28;;;25.00
32039;BMP280;18549;42.286;22.688;2023-06-22T01:55:03;96045.16;;;25.00
32039;BMP280;18549;42.286;22.688;2023-06-22T01:57:33;96049.88;;;25.03
32039;BMP280;18549;42.286;22.688;2023-06-22T02:00:05;96047.16;;;25.05
32039;BMP280;18549;42.286;22.688;2023-06-22T02:02:41;96042.09;;;25.05
32039;BMP280;18549;42.286;22.688;2023-06-22T02:05:15;96033.50;;;25.06
32039;BMP280;18549;42.286;22.688;2023-06-22T02:07:47;96038.78;;;25.04
32039;BMP280;18549;42.286;22.688;2023-06-22T02:10:17;96033.88;;;25.03
32039;BMP280;18549;42.286;22.688;2023-06-22T02:12:47;96045.00;;;25.02
32039;BMP280;18549;42.286;22.688;2023-06-22T02:15:19;96047.69;;;25.00
32039;BMP280;18549;42.286;22.688;2023-06-22T02:17:50;96044.38;;;25.00
32039;BMP280;18549;42.286;22.688;2023-06-22T02:20:19;96035.38;;;24.97
32039;BMP280;18549;42.286;22.688;2023-06-22T02:22:48;96039.03;;;24.95
32039;BMP280;18549;42.286;22.688;2023-06-22T02:25:16;96026.69;;;24.92
32039;BMP280;18549;42.286;22.688;2023-06-22T02:27:44;96029.22;;;24.92
32039;BMP280;18549;42.286;22.688;2023-06-22T02:30:12;96035.25;;;24.91
32039;BMP280;18549;42.286;22.688;2023-06-22T02:32:44;96029.72;;;24.87
32039;BMP280;18549;42.286;22.688;2023-06-22T02:35:13;96029.13;;;24.85
32039;BMP280;18549;42.286;22.688;2023-06-22T02:37:41;96031.81;;;24.84
32039;BMP280;18549;42.286;22.688;2023-06-22T02:40:09;96034.34;;;24.84
32039;BMP280;18549;42.286;22.688;2023-06-22T02:42:39;96034.69;;;24.81
32039;BMP280;18549;42.286;22.688;2023-06-22T02:45:07;96037.56;;;24.78
32039;BMP280;18549;42.286;22.688;2023-06-22T02:47:35;96034.41;;;24.76
32039;BMP280;18549;42.286;22.688;2023-06-22T02:50:02;96034.12;;;24.71
32039;BMP280;18549;42.286;22.688;2023-06-22T02:52:31;96033.50;;;24.69
32039;BMP280;18549;42.286;22.688;2023-06-22T02:55:00;96034.50;;;24.68
32039;BMP280;18549;42.286;22.688;2023-06-22T02:57:27;96035.50;;;24.59
32039;BMP280;18549;42.286;22.688;2023-06-22T02:59:55;96029.19;;;24.55
32039;BMP280;18549;42.286;22.688;2023-06-22T03:02:22;96031.66;;;24.49
32039;BMP280;18549;42.286;22.688;2023-06-22T03:04:49;96038.13;;;24.52
32039;BMP280;18549;42.286;22.688;2023-06-22T03:07:19;96040.47;;;24.53
32039;BMP280;18549;42.286;22.688;2023-06-22T03:09:47;96034.62;;;24.52
32039;BMP280;18549;42.286;22.688;2023-06-22T03:12:15;96046.50;;;24.52
32039;BMP280;18549;42.286;22.688;2023-06-22T03:14:43;96056.81;;;24.51
32039;BMP280;18549;42.286;22.688;2023-06-22T03:17:10;96053.22;;;24.45
32039;BMP280;18549;42.286;22.688;2023-06-22T03:19:39;96058.44;;;24.44
32039;BMP280;18549;42.286;22.688;2023-06-22T03:22:06;96063.06;;;24.40
32039;BMP280;18549;42.286;22.688;2023-06-22T03:24:33;96068.31;;;24.39
32039;BMP280;18549;42.286;22.688;2023-06-22T03:27:05;96072.12;;;24.35
32039;BMP280;18549;42.286;22.688;2023-06-22T03:29:32;96071.50;;;24.33
32039;BMP280;18549;42.286;22.688;2023-06-22T03:32:01;96079.28;;;24.31
32039;BMP280;18549;42.286;22.688;2023-06-22T03:34:31;96081.19;;;24.29
32039;BMP280;18549;42.286;22.688;2023-06-22T03:36:59;96086.78;;;24.25
32039;BMP280;18549;42.286;22.688;2023-06-22T03:39:27;96079.16;;;24.25
32039;BMP280;18549;42.286;22.688;2023-06-22T03:41:54;96075.66;;;24.26
32039;BMP280;18549;42.286;22.688;2023-06-22T03:44:25;96087.09;;;24.22
32039;BMP280;18549;42.286;22.688;2023-06-22T03:46:52;96095.00;;;24.19
32039;BMP280;18549;42.286;22.688;2023-06-22T03:49:19;96094.84;;;24.20
32039;BMP280;18549;42.286;22.688;2023-06-22T03:51:48;96094.53;;;24.23
32039;BMP280;18549;42.286;22.688;2023-06-22T03:54:18;96095.34;;;24.24
32039;BMP280;18549;42.286;22.688;2023-06-22T03:56:45;96087.41;;;24.19
32039;BMP280;18549;42.286;22.688;2023-06-22T03:59:14;96089.63;;;24.14
32039;BMP280;18549;42.286;22.688;2023-06-22T04:01:43;96086.66;;;24.11
32039;BMP280;18549;42.286;22.688;2023-06-22T04:04:12;96095.06;;;24.11
32039;BMP280;18549;42.286;22.688;2023-06-22T04:06:39;96095.84;;;24.12
32039;BMP280;18549;42.286;22.688;2023-06-22T04:09:07;96086.47;;;24.12
32039;BMP280;18549;42.286;22.688;2023-06-22T04:11:34;96077.94;;;24.13
32039;BMP280;18549;42.286;22.688;2023-06-22T04:14:01;96091.56;;;24.12
32039;BMP280;18549;42.286;22.688;2023-06-22T04:16:29;96084.56;;;24.14
32039;BMP280;18549;42.286;22.688;2023-06-22T04:18:58;96085.34;;;24.15
32039;BMP280;18549;42.286;22.688;2023-06-22T04:21:25;96086.44;;;24.20
32039;BMP280;18549;42.286;22.688;2023-06-22T04:23:53;96083.75;;;24.21
32039;BMP280;18549;42.286;22.688;2023-06-22T04:26:24;96090.56;;;24.21
32039;BMP280;18549;42.286;22.688;2023-06-22T04:28:51;96090.28;;;24.24
32039;BMP280;18549;42.286;22.688;2023-06-22T04:31:24;96083.72;;;24.29
32039;BMP280;18549;42.286;22.688;2023-06-22T04:34:04;96087.19;;;24.28
32039;BMP280;18549;42.286;22.688;2023-06-22T04:36:34;96080.41;;;24.29
32039;BMP280;18549;42.286;22.688;2023-06-22T04:39:06;96091.75;;;24.33
32039;BMP280;18549;42.286;22.688;2023-06-22T04:41:36;96092.84;;;24.38
32039;BMP280;18549;42.286;22.688;2023-06-22T04:44:09;96088.22;;;24.42
32039;BMP280;18549;42.286;22.688;2023-06-22T04:46:37;96075.75;;;24.40
32039;BMP280;18549;42.286;22.688;2023-06-22T04:49:09;96086.66;;;24.41
32039;BMP280;18549;42.286;22.688;2023-06-22T04:51:39;96063.69;;;24.42
32039;BMP280;18549;42.286;22.688;2023-06-22T04:54:08;96075.25;;;24.45
32039;BMP280;18549;42.286;22.688;2023-06-22T04:56:35;96071.75;;;24.46
32039;BMP280;18549;42.286;22.688;2023-06-22T04:59:14;96074.63;;;24.43
32039;BMP280;18549;42.286;22.688;2023-06-22T05:01:44;96073.50;;;24.45
32039;BMP280;18549;42.286;22.688;2023-06-22T05:04:14;96085.19;;;24.46
32039;BMP280;18549;42.286;22.688;2023-06-22T05:06:41;96090.75;;;24.42
32039;BMP280;18549;42.286;22.688;2023-06-22T05:09:09;96089.63;;;24.44
32039;BMP280;18549;42.286;22.688;2023-06-22T05:11:42;96094.88;;;24.43
32039;BMP280;18549;42.286;22.688;2023-06-22T05:14:09;96089.53;;;24.38
32039;BMP280;18549;42.286;22.688;2023-06-22T05:16:37;96095.56;;;24.37
32039;BMP280;18549;42.286;22.688;2023-06-22T05:19:05;96105.06;;;24.35
32039;BMP280;18549;42.286;22.688;2023-06-22T05:21:35;96106.47;;;24.37
32039;BMP280;18549;42.286;22.688;2023-06-22T05:24:03;96101.88;;;24.41
32039;BMP280;18549;42.286;22.688;2023-06-22T05:26:33;96095.03;;;24.41
32039;BMP280;18549;42.286;22.688;2023-06-22T05:29:11;96101.53;;;24.44
32039;BMP280;18549;42.286;22.688;2023-06-22T05:31:44;96095.22;;;24.40
32039;BMP280;18549;42.286;22.688;2023-06-22T05:34:18;96095.22;;;24.40
32039;BMP280;18549;42.286;22.688;2023-06-22T05:36:47;96097.94;;;24.38
32039;BMP280;18549;42.286;22.688;2023-06-22T05:39:16;96095.56;;;24.37
32039;BMP280;18549;42.286;22.688;2023-06-22T05:41:45;96095.84;;;24.42
32039;BMP280;18549;42.286;22.688;2023-06-22T05:44:14;96102.78;;;24.48
32039;BMP280;18549;42.286;22.688;2023-06-22T05:46:47;96104.97;;;24.51
32039;BMP280;18549;42.286;22.688;2023-06-22T05:49:15;96095.78;;;24.50
32039;BMP280;18549;42.286;22.688;2023-06-22T05:51:46;96103.66;;;24.54
32039;BMP280;18549;42.286;22.688;2023-06-22T05:54:30;96101.41;;;24.59
32039;BMP280;18549;42.286;22.688;2023-06-22T05:56:58;96101.69;;;24.64
32039;BMP280;18549;42.286;22.688;2023-06-22T05:59:44;96113.06;;;24.68
32039;BMP280;18549;42.286;22.688;2023-06-22T06:02:29;96108.78;;;24.69
32039;BMP280;18549;42.286;22.688;2023-06-22T06:05:09;96114.72;;;24.61
32039;BMP280;18549;42.286;22.688;2023-06-22T06:07:39;96107.22;;;24.68
32039;BMP280;18549;42.286;22.688;2023-06-22T06:10:12;96106.75;;;24.64
32039;BMP280;18549;42.286;22.688;2023-06-22T06:12:40;96104.81;;;24.74
32039;BMP280;18549;42.286;22.688;2023-06-22T06:15:12;96111.28;;;24.77
32039;BMP280;18549;42.286;22.688;2023-06-22T06:17:47;96104.81;;;24.74
32039;BMP280;18549;42.286;22.688;2023-06-22T06:20:29;96105.22;;;24.78
32039;BMP280;18549;42.286;22.688;2023-06-22T06:22:58;96105.00;;;24.87
32039;BMP280;18549;42.286;22.688;2023-06-22T06:25:27;96094.84;;;24.87
32039;BMP280;18549;42.286;22.688;2023-06-22T06:28:02;96098.31;;;24.94
32039;BMP280;18549;42.286;22.688;2023-06-22T06:30:30;96098.94;;;24.96
32039;BMP280;18549;42.286;22.688;2023-06-22T06:33:04;96092.72;;;24.98
32039;BMP280;18549;42.286;22.688;2023-06-22T06:35:34;96086.19;;;25.04
32039;BMP280;18549;42.286;22.688;2023-06-22T06:38:07;96083.91;;;25.09
32039;BMP280;18549;42.286;22.688;2023-06-22T06:40:35;96086.72;;;25.14
32039;BMP280;18549;42.286;22.688;2023-06-22T06:43:07;96094.06;;;25.23
32039;BMP280;18549;42.286;22.688;2023-06-22T06:45:45;96085.31;;;25.25
32039;BMP280;18549;42.286;22.688;2023-06-22T06:48:12;96077.09;;;25.23
32039;BMP280;18549;42.286;22.688;2023-06-22T06:50:44;96083.81;;;25.31
32039;BMP280;18549;42.286;22.688;2023-06-22T06:53:17;96088.84;;;25.39
32039;BMP280;18549;42.286;22.688;2023-06-22T06:55:48;96086.41;;;25.45
32039;BMP280;18549;42.286;22.688;2023-06-22T06:58:20;96073.19;;;25.50
32039;BMP280;18549;42.286;22.688;2023-06-22T07:00:49;96074.09;;;25.56
32039;BMP280;18549;42.286;22.688;2023-06-22T07:03:20;96072.56;;;25.62
32039;BMP280;18549;42.286;22.688;2023-06-22T07:05:49;96073.19;;;25.64
32039;BMP280;18549;42.286;22.688;2023-06-22T07:08:25;96075.72;;;25.64
32039;BMP280;18549;42.286;22.688;2023-06-22T07:10:58;96069.94;;;25.70
32039;BMP280;18549;42.286;22.688;2023-06-22T07:13:30;96062.59;;;25.75
32039;BMP280;18549;42.286;22.688;2023-06-22T07:16:11;96064.03;;;25.84
32039;BMP280;18549;42.286;22.688;2023-06-22T07:18:42;96067.81;;;25.87
32039;BMP280;18549;42.286;22.688;2023-06-22T07:21:24;96072.78;;;25.95
32039;BMP280;18549;42.286;22.688;2023-06-22T07:23:57;96080.41;;;25.95
32039;BMP280;18549;42.286;22.688;2023-06-22T07:26:24;96076.19;;;26.02
32039;BMP280;18549;42.286;22.688;2023-06-22T07:29:01;96072.75;;;26.10
32039;BMP280;18549;42.286;22.688;2023-06-22T07:31:33;96074.41;;;26.17
32039;BMP280;18549;42.286;22.688;2023-06-22T07:34:13;96070.94;;;26.18
32039;BMP280;18549;42.286;22.688;2023-06-22T07:36:43;96069.81;;;26.27
32039;BMP280;18549;42.286;22.688;2023-06-22T07:39:18;96069.88;;;26.33
32039;BMP280;18549;42.286;22.688;2023-06-22T07:42:01;96069.56;;;26.36
32039;BMP280;18549;42.286;22.688;2023-06-22T07:44:31;96061.00;;;26.44
32039;BMP280;18549;42.286;22.688;2023-06-22T07:47:04;96047.75;;;26.48
32039;BMP280;18549;42.286;22.688;2023-06-22T07:52:08;96045.13;;;26.62
32039;BMP280;18549;42.286;22.688;2023-06-22T07:54:38;96056.56;;;26.73
32039;BMP280;18549;42.286;22.688;2023-06-22T07:57:09;96051.59;;;26.86
32039;BMP280;18549;42.286;22.688;2023-06-22T07:59:37;96050.12;;;26.97
32039;BMP280;18549;42.286;22.688;2023-06-22T08:02:06;96046.66;;;27.05
32039;BMP280;18549;42.286;22.688;2023-06-22T08:04:34;96046.94;;;27.16
32039;BMP280;18549;42.286;22.688;2023-06-22T08:07:03;96046.59;;;27.25
32039;BMP280;18549;42.286;22.688;2023-06-22T08:09:34;96048.81;;;27.35
32039;BMP280;18549;42.286;22.688;2023-06-22T08:12:06;96052.97;;;27.42
32039;BMP280;18549;42.286;22.688;2023-06-22T08:14:37;96050.88;;;27.52
32039;BMP280;18549;42.286;22.688;2023-06-22T08:17:05;96045.81;;;27.58
32039;BMP280;18549;42.286;22.688;2023-06-22T08:19:32;96055.03;;;27.66
32039;BMP280;18549;42.286;22.688;2023-06-22T08:22:16;96048.81;;;27.75
32039;BMP280;18549;42.286;22.688;2023-06-22T08:24:53;96049.62;;;27.82
32039;BMP280;18549;42.286;22.688;2023-06-22T08:27:28;96054.75;;;27.88
32039;BMP280;18549;42.286;22.688;2023-06-22T08:29:57;96044.59;;;27.94
32039;BMP280;18549;42.286;22.688;2023-06-22T08:32:25;96044.63;;;28.01
32039;BMP280;18549;42.286;22.688;2023-06-22T08:34:58;96040.53;;;28.06
32039;BMP280;18549;42.286;22.688;2023-06-22T08:37:30;96041.31;;;28.13
32039;BMP280;18549;42.286;22.688;2023-06-22T08:40:05;96036.22;;;28.13
32039;BMP280;18549;42.286;22.688;2023-06-22T08:42:47;96040.16;;;28.22
32039;BMP280;18549;42.286;22.688;2023-06-22T08:45:14;96034.88;;;28.30
32039;BMP280;18549;42.286;22.688;2023-06-22T08:47:45;96036.25;;;28.39
32039;BMP280;18549;42.286;22.688;2023-06-22T08:50:14;96026.84;;;28.46
32039;BMP280;18549;42.286;22.688;2023-06-22T08:52:46;96025.09;;;28.46
32039;BMP280;18549;42.286;22.688;2023-06-22T08:55:17;96011.41;;;28.54
32039;BMP280;18549;42.286;22.688;2023-06-22T08:57:47;96016.13;;;28.63
32039;BMP280;18549;42.286;22.688;2023-06-22T09:00:26;96018.25;;;28.66
32039;BMP280;18549;42.286;22.688;2023-06-22T09:03:01;96013.16;;;28.72
32039;BMP280;18549;42.286;22.688;2023-06-22T09:05:29;96009.25;;;28.76
32039;BMP280;18549;42.286;22.688;2023-06-22T09:07:56;96012.16;;;28.86
32039;BMP280;18549;42.286;22.688;2023-06-22T09:10:28;96011.75;;;28.95
32039;BMP280;18549;42.286;22.688;2023-06-22T09:12:59;96006.06;;;29.00
32039;BMP280;18549;42.286;22.688;2023-06-22T09:15:32;95999.00;;;29.02
32039;BMP280;18549;42.286;22.688;2023-06-22T09:18:00;95999.75;;;29.09
32039;BMP280;18549;42.286;22.688;2023-06-22T09:20:29;95991.72;;;29.12
32039;BMP280;18549;42.286;22.688;2023-06-22T09:22:56;95995.66;;;29.14
32039;BMP280;18549;42.286;22.688;2023-06-22T09:25:26;95997.00;;;29.23
32039;BMP280;18549;42.286;22.688;2023-06-22T09:27:53;95996.38;;;29.34
32039;BMP280;18549;42.286;22.688;2023-06-22T09:30:22;95994.59;;;29.41
32039;BMP280;18549;42.286;22.688;2023-06-22T09:32:50;95995.78;;;29.45
32039;BMP280;18549;42.286;22.688;2023-06-22T09:35:35;95995.34;;;29.54
32039;BMP280;18549;42.286;22.688;2023-06-22T09:38:03;95991.94;;;29.60
32039;BMP280;18549;42.286;22.688;2023-06-22T09:40:32;95977.22;;;29.62
32039;BMP280;18549;42.286;22.688;2023-06-22T09:43:08;95987.81;;;29.72
32039;BMP280;18549;42.286;22.688;2023-06-22T09:45:38;95987.56;;;29.80
32039;BMP280;18549;42.286;22.688;2023-06-22T09:48:07;95991.28;;;29.84
32039;BMP280;18549;42.286;22.688;2023-06-22T09:50:37;95994.03;;;29.88
32039;BMP280;18549;42.286;22.688;2023-06-22T09:53:19;95997.16;;;29.90
32039;BMP280;18549;42.286;22.688;2023-06-22T09:55:48;95993.75;;;29.96
32039;BMP280;18549;42.286;22.688;2023-06-22T09:58:18;95997.91;;;29.97
32039;BMP280;18549;42.286;22.688;2023-06-22T10:00:51;95994.72;;;30.02
32039;BMP280;18549;42.286;22.688;2023-06-22T10:03:25;95988.81;;;30.01
32039;BMP280;18549;42.286;22.688;2023-06-22T10:05:56;95987.66;;;30.04
32039;BMP280;18549;42.286;22.688;2023-06-22T10:08:26;95990.72;;;30.12
32039;BMP280;18549;42.286;22.688;2023-06-22T10:11:08;95991.09;;;30.22
32039;BMP280;18549;42.286;22.688;2023-06-22T10:13:35;95988.31;;;30.23
32039;BMP280;18549;42.286;22.688;2023-06-22T10:16:07;95969.78;;;30.28
32039;BMP280;18549;42.286;22.688;2023-06-22T10:18:44;95975.28;;;30.31
32039;BMP280;18549;42.286;22.688;2023-06-22T10:21:12;95973.25;;;30.40
32039;BMP280;18549;42.286;22.688;2023-06-22T10:23:46;95964.97;;;30.38
32039;BMP280;18549;42.286;22.688;2023-06-22T10:26:13;95973.62;;;30.43
32039;BMP280;18549;42.286;22.688;2023-06-22T10:28:40;95971.63;;;30.45
32039;BMP280;18549;42.286;22.688;2023-06-22T10:31:11;95965.47;;;30.53
32039;BMP280;18549;42.286;22.688;2023-06-22T10:33:39;95975.13;;;30.51
32039;BMP280;18549;42.286;22.688;2023-06-22T10:36:09;95962.75;;;30.48
32039;BMP280;18549;42.286;22.688;2023-06-22T10:38:38;95965.31;;;30.48
32039;BMP280;18549;42.286;22.688;2023-06-22T10:41:09;95966.28;;;30.47
32039;BMP280;18549;42.286;22.688;2023-06-22T10:43:38;95962.47;;;30.55
32039;BMP280;18549;42.286;22.688;2023-06-22T10:46:13;95952.97;;;30.62
32039;BMP280;18549;42.286;22.688;2023-06-22T10:48:40;95961.59;;;30.68
32039;BMP280;18549;42.286;22.688;2023-06-22T10:51:14;95950.53;;;30.74
32039;BMP280;18549;42.286;22.688;2023-06-22T10:53:42;95944.22;;;30.76
32039;BMP280;18549;42.286;22.688;2023-06-22T10:56:09;95948.56;;;30.76
32039;BMP280;18549;42.286;22.688;2023-06-22T10:58:36;95951.63;;;30.84
32039;BMP280;18549;42.286;22.688;2023-06-22T11:01:07;95929.38;;;30.85
32039;BMP280;18549;42.286;22.688;2023-06-22T11:03:35;95940.19;;;30.87
32039;BMP280;18549;42.286;22.688;2023-06-22T11:06:05;95934.28;;;30.86
32039;BMP280;18549;42.286;22.688;2023-06-22T11:08:36;95926.81;;;30.85
32039;BMP280;18549;42.286;22.688;2023-06-22T11:11:05;95932.50;;;30.87
32039;BMP280;18549;42.286;22.688;2023-06-22T11:13:34;95927.88;;;30.95
32039;BMP280;18549;42.286;22.688;2023-06-22T11:16:07;95928.16;;;31.05
32039;BMP280;18549;42.286;22.688;2023-06-22T11:18:38;95920.12;;;31.01
32039;BMP280;18549;42.286;22.688;2023-06-22T11:21:05;95922.41;;;31.09
32039;BMP280;18549;42.286;22.688;2023-06-22T11:23:33;95926.91;;;31.14
32039;BMP280;18549;42.286;22.688;2023-06-22T11:26:01;95921.72;;;31.20
32039;BMP280;18549;42.286;22.688;2023-06-22T11:28:29;95923.06;;;31.23
32039;BMP280;18549;42.286;22.688;2023-06-22T11:30:56;95931.87;;;31.26
32039;BMP280;18549;42.286;22.688;2023-06-22T11:33:23;95922.56;;;31.32
32039;BMP280;18549;42.286;22.688;2023-06-22T11:35:54;95933.28;;;31.40
32039;BMP280;18549;42.286;22.688;2023-06-22T11:38:25;95921.47;;;31.39
32039;BMP280;18549;42.286;22.688;2023-06-22T11:40:53;95926.53;;;31.46
32039;BMP280;18549;42.286;22.688;2023-06-22T11:43:22;95921.75;;;31.49
32039;BMP280;18549;42.286;22.688;2023-06-22T11:45:50;95923.78;;;31.58
32039;BMP280;18549;42.286;22.688;2023-06-22T11:48:21;95919.50;;;31.70
32039;BMP280;18549;42.286;22.688;2023-06-22T11:50:48;95909.34;;;31.64
32039;BMP280;18549;42.286;22.688;2023-06-22T11:53:24;95917.84;;;31.76
32039;BMP280;18549;42.286;22.688;2023-06-22T11:55:52;95911.44;;;31.85
32039;BMP280;18549;42.286;22.688;2023-06-22T11:58:21;95902.56;;;31.98
32039;BMP280;18549;42.286;22.688;2023-06-22T12:00:50;95910.13;;;31.93
32039;BMP280;18549;42.286;22.688;2023-06-22T12:03:17;95903.66;;;31.91
32039;BMP280;18549;42.286;22.688;2023-06-22T12:05:45;95906.53;;;31.94
32039;BMP280;18549;42.286;22.688;2023-06-22T12:08:12;95910.34;;;32.03
32039;BMP280;18549;42.286;22.688;2023-06-22T12:10:43;95904.12;;;32.11
32039;BMP280;18549;42.286;22.688;2023-06-22T12:13:11;95896.88;;;32.08
32039;BMP280;18549;42.286;22.688;2023-06-22T12:15:39;95893.97;;;32.16
32039;BMP280;18549;42.286;22.688;2023-06-22T12:18:09;95885.84;;;32.19
32039;BMP280;18549;42.286;22.688;2023-06-22T12:20:40;95883.66;;;32.33
32039;BMP280;18549;42.286;22.688;2023-06-22T12:23:08;95879.19;;;32.40
32039;BMP280;18549;42.286;22.688;2023-06-22T12:25:38;95874.97;;;32.46
32039;BMP280;18549;42.286;22.688;2023-06-22T12:28:08;95875.84;;;32.40
32039;BMP280;18549;42.286;22.688;2023-06-22T12:30:35;95877.41;;;32.41
32039;BMP280;18549;42.286;22.688;2023-06-22T12:33:03;95869.84;;;32.46
32039;BMP280;18549;42.286;22.688;2023-06-22T12:35:30;95877.09;;;32.49
32039;BMP280;18549;42.286;22.688;2023-06-22T12:38:00;95865.03;;;32.49
32039;BMP280;18549;42.286;22.688;2023-06-22T12:40:29;95868.16;;;32.51
32039;BMP280;18549;42.286;22.688;2023-06-22T12:43:00;95850.75;;;32.53
32039;BMP280;18549;42.286;22.688;2023-06-22T12:45:30;95853.97;;;32.60
32039;BMP280;18549;42.286;22.688;2023-06-22T12:48:07;95854.53;;;32.73
32039;BMP280;18549;42.286;22.688;2023-06-22T12:50:43;95841.03;;;32.66
32039;BMP280;18549;42.286;22.688;2023-06-22T12:53:10;95845.91;;;32.68
32039;BMP280;18549;42.286;22.688;2023-06-22T12:55:37;95841.69;;;32.73
32039;BMP280;18549;42.286;22.688;2023-06-22T12:58:05;95844.47;;;32.72
32039;BMP280;18549;42.286;22.688;2023-06-22T13:00:37;95840.22;;;32.66
32039;BMP280;18549;42.286;22.688;2023-06-22T13:03:08;95842.47;;;32.74
32039;BMP280;18549;42.286;22.688;2023-06-22T13:05:47;95837.00;;;32.82
32039;BMP280;18549;42.286;22.688;2023-06-22T13:08:16;95840.09;;;32.72
32039;BMP280;18549;42.286;22.688;2023-06-22T13:10:42;95840.09;;;32.72
32039;BMP280;18549;42.286;22.688;2023-06-22T13:13:10;95845.69;;;32.69
32039;BMP280;18549;42.286;22.688;2023-06-22T13:15:39;95844.59;;;32.65
32039;BMP280;18549;42.286;22.688;2023-06-22T13:18:07;95841.69;;;32.73
32039;BMP280;18549;42.286;22.688;2023-06-22T13:20:36;95842.00;;;32.88
32039;BMP280;18549;42.286;22.688;2023-06-22T13:23:04;95839.09;;;32.96
32039;BMP280;18549;42.286;22.688;2023-06-22T13:25:34;95840.66;;;32.97
32039;BMP280;18549;42.286;22.688;2023-06-22T13:28:03;95841.19;;;32.99
32039;BMP280;18549;42.286;22.688;2023-06-22T13:30:31;95844.31;;;33.01
32039;BMP280;18549;42.286;22.688;2023-06-22T13:33:02;95836.62;;;33.01
32039;BMP280;18549;42.286;22.688;2023-06-22T13:35:30;95837.19;;;33.03
32039;BMP280;18549;42.286;22.688;2023-06-22T13:37:59;95841.88;;;32.94
32039;BMP280;18549;42.286;22.688;2023-06-22T13:40:26;95828.84;;;32.85
32039;BMP280;18549;42.286;22.688;2023-06-22T13:42:53;95823.47;;;32.75
32039;BMP280;18549;42.286;22.688;2023-06-22T13:45:20;95830.31;;;32.81
32039;BMP280;18549;42.286;22.688;2023-06-22T13:47:47;95829.16;;;32.88
32039;BMP280;18549;42.286;22.688;2023-06-22T13:50:18;95829.72;;;32.90
32039;BMP280;18549;42.286;22.688;2023-06-22T13:52:45;95838.28;;;32.95
32039;BMP280;18549;42.286;22.688;2023-06-22T13:55:14;95835.72;;;32.95
32039;BMP280;18549;42.286;22.688;2023-06-22T13:57:45;95841.78;;;32.78
32039;BMP280;18549;42.286;22.688;2023-06-22T14:00:13;95838.75;;;32.92
32039;BMP280;18549;42.286;22.688;2023-06-22T14:02:41;95832.66;;;32.82
32039;BMP280;18549;42.286;22.688;2023-06-22T14:05:09;95839.78;;;32.69
32039;BMP280;18549;42.286;22.688;2023-06-22T14:07:39;95838.13;;;32.52
32039;BMP280;18549;42.286;22.688;2023-06-22T14:10:07;95848.75;;;32.32
32039;BMP280;18549;42.286;22.688;2023-06-22T14:12:34;95854.06;;;32.08
32039;BMP280;18549;42.286;22.688;2023-06-22T14:15:01;95859.53;;;32.00